createdAt,value
2023-05-01T00:03:06.818Z,5.87
2023-05-01T00:46:43.833Z,5.97
2023-05-01T00:50:43.649Z,8.75
2023-05-01T01:30:29.275Z,8.60
2023-05-01T01:34:37.767Z,6.32
2023-05-01T03:13:53.514Z,16.13
2023-05-01T03:28:32.692Z,8.52
2023-05-01T03:39:44.508Z,7.47
2023-05-01T03:43:53.990Z,8.88
2023-05-01T03:47:31.073Z,11.10
2023-05-01T03:54:28.463Z,8.65
2023-05-01T03:57:59.917Z,11.10
2023-05-01T04:05:33.909Z,10.35
2023-05-01T04:13:25.199Z,10.55
2023-05-01T04:17:33.483Z,10.63
2023-05-01T04:21:39.133Z,10.18
2023-05-01T04:38:29.038Z,8.97
2023-05-01T05:45:44.930Z,6.87
2023-05-01T05:52:57.144Z,7.03
2023-05-01T05:56:20.749Z,6.25
2023-05-01T06:03:38.429Z,4.83
2023-05-01T06:06:43.431Z,5.03
2023-05-01T06:10:04.679Z,5.68
2023-05-01T06:13:23.518Z,5.15
2023-05-01T06:16:39.359Z,3.60
2023-05-01T06:19:43.901Z,4.77
2023-05-01T06:22:51.538Z,3.42
2023-05-01T06:26:04.988Z,2.53
2023-05-01T06:29:17.113Z,3.55
2023-05-01T06:32:21.370Z,1.52
2023-05-01T06:35:26.488Z,6.03
2023-05-01T06:38:46.554Z,2.75
2023-05-01T06:42:07.022Z,3.42
2023-05-01T06:45:18.542Z,3.45
2023-05-01T06:48:33.080Z,2.75
2023-05-01T06:51:58.655Z,4.13
2023-05-01T06:55:10.183Z,3.33
2023-05-01T06:58:42.524Z,4.50
2023-05-01T07:02:08.833Z,3.58
2023-05-01T07:05:18.189Z,1.98
2023-05-01T07:08:40.311Z,3.67
2023-05-01T07:53:07.440Z,5.75
2023-05-01T07:56:49.206Z,3.03
2023-05-01T08:04:31.682Z,5.07
2023-05-01T08:08:21.360Z,6.00
2023-05-01T08:12:14.606Z,4.85
2023-05-01T08:15:49.293Z,4.05
2023-05-01T08:19:51.932Z,2.42
2023-05-01T08:23:27.038Z,3.00
2023-05-01T08:27:45.974Z,3.25
2023-05-01T08:30:57.794Z,2.90
2023-05-01T08:44:20.546Z,7.53
2023-05-01T08:51:57.954Z,4.75
2023-05-01T08:55:42.507Z,3.63
2023-05-01T08:59:31.186Z,2.53
2023-05-01T09:31:51.162Z,4.22
2023-05-01T09:40:38.364Z,2.97
2023-05-01T09:44:44.966Z,3.20
2023-05-01T09:48:23.571Z,1.93
2023-05-01T09:51:54.044Z,6.50
2023-05-01T09:55:52.687Z,3.40
2023-05-01T10:04:03.208Z,3.33
2023-05-01T10:17:37.076Z,1.95
2023-05-01T10:22:41.948Z,2.70
2023-05-01T10:26:11.015Z,4.45
2023-05-01T10:29:51.594Z,2.17
2023-05-01T10:33:12.917Z,3.17
2023-05-01T10:36:27.469Z,3.70
2023-05-01T10:40:02.985Z,1.65
2023-05-01T10:43:33.789Z,2.78
2023-05-01T10:47:01.029Z,2.13
2023-05-01T10:55:00.608Z,2.80
2023-05-01T10:59:04.930Z,2.38
2023-05-01T11:03:01.607Z,2.85
2023-05-01T11:11:16.400Z,2.70
2023-05-01T11:24:02.079Z,3.70
2023-05-01T11:27:40.867Z,3.50
2023-05-01T11:38:47.463Z,3.13
2023-05-01T11:42:36.273Z,2.83
2023-05-01T11:46:03.100Z,1.90
2023-05-01T11:49:09.037Z,4.40
2023-05-01T11:52:22.247Z,3.22
2023-05-01T11:59:38.594Z,1.80
2023-05-01T12:03:12.160Z,2.47
2023-05-01T12:06:20.810Z,3.33
2023-05-01T12:09:34.288Z,1.80
2023-05-01T12:12:45.137Z,1.98
2023-05-01T12:15:54.059Z,1.50
2023-05-01T12:19:20.186Z,4.70
2023-05-01T12:22:51.048Z,1.83
2023-05-01T12:26:17.165Z,2.90
2023-05-01T12:29:52.362Z,2.13
2023-05-01T12:38:01.202Z,2.63
2023-05-01T14:20:39.645Z,1.40
2023-05-01T14:25:16.350Z,1.48
2023-05-01T14:29:03.605Z,2.03
2023-05-01T14:32:42.219Z,0.70
2023-05-01T15:03:11.388Z,2.20
2023-05-01T15:18:33.453Z,1.65
2023-05-01T15:21:39.752Z,1.45
2023-05-01T15:24:59.895Z,2.88
2023-05-01T15:28:28.111Z,2.63
2023-05-01T15:31:38.640Z,3.38
2023-05-01T15:34:55.595Z,2.42
2023-05-01T15:37:59.650Z,1.45
2023-05-01T15:41:03.768Z,1.05
2023-05-01T15:44:21.306Z,3.03
2023-05-01T15:47:39.095Z,2.78
2023-05-01T15:50:48.774Z,4.18
2023-05-01T15:53:59.535Z,3.33
2023-05-01T15:57:05.378Z,3.30
2023-05-01T16:00:16.802Z,4.90
2023-05-01T16:03:22.519Z,1.38
2023-05-01T16:06:28.854Z,1.40
2023-05-01T16:09:42.949Z,1.30
2023-05-01T16:12:53.639Z,1.70
2023-05-01T16:16:03.471Z,2.80
2023-05-01T16:19:19.492Z,2.13
2023-05-01T16:22:33.732Z,3.53
2023-05-01T16:25:38.072Z,1.98
2023-05-01T16:28:51.375Z,4.45
2023-05-01T16:31:58.129Z,2.03
2023-05-01T16:35:06.125Z,3.35
2023-05-01T16:38:14.582Z,4.47
2023-05-01T16:41:27.015Z,5.25
2023-05-01T16:44:31.222Z,1.10
2023-05-01T16:47:45.115Z,1.43
2023-05-01T16:50:55.174Z,1.60
2023-05-01T16:54:02.711Z,2.08
2023-05-01T16:57:09.596Z,3.22
2023-05-01T17:00:27.807Z,2.60
2023-05-01T17:03:33.468Z,2.70
2023-05-01T17:06:38.042Z,1.95
2023-05-01T17:09:44.070Z,2.35
2023-05-01T17:12:49.089Z,2.72
2023-05-01T17:15:58.160Z,2.45
2023-05-01T17:19:05.477Z,2.23
2023-05-01T17:22:11.307Z,3.13
2023-05-01T17:25:32.908Z,1.90
2023-05-01T17:28:39.872Z,3.85
2023-05-01T17:32:11.034Z,2.03
2023-05-01T17:35:54.278Z,2.60
2023-05-01T17:39:32.372Z,3.00
2023-05-01T17:51:03.717Z,3.92
2023-05-01T17:55:32.040Z,4.20
2023-05-01T17:59:40.181Z,2.60
2023-05-01T18:03:53.607Z,3.25
2023-05-01T18:07:35.429Z,3.15
2023-05-01T18:11:16.156Z,2.42
2023-05-01T18:14:53.110Z,3.60
2023-05-01T18:18:25.098Z,4.35
2023-05-01T18:21:39.886Z,2.78
2023-05-01T18:24:48.195Z,4.93
2023-05-01T18:31:39.945Z,5.03
2023-05-01T18:35:14.562Z,2.65
2023-05-01T18:38:41.495Z,3.30
2023-05-01T18:42:12.951Z,4.65
2023-05-01T18:45:27.357Z,3.08
2023-05-01T18:48:39.786Z,5.97
2023-05-01T18:51:52.625Z,4.03
2023-05-01T18:55:21.256Z,3.85
2023-05-01T18:58:47.433Z,2.72
2023-05-01T19:02:01.672Z,2.95
2023-05-01T19:05:15.258Z,4.00
2023-05-01T19:08:38.713Z,5.57
2023-05-01T19:11:54.991Z,3.83
2023-05-01T19:15:12.318Z,3.75
2023-05-01T19:19:02.611Z,4.13
2023-05-01T19:22:51.407Z,3.63
2023-05-01T19:26:51.976Z,6.28
2023-05-01T19:31:06.789Z,4.28
2023-05-01T19:34:48.526Z,2.17
2023-05-01T19:42:59.463Z,3.67
2023-05-01T19:51:27.736Z,2.17
2023-05-01T20:23:22.613Z,2.67
2023-05-01T20:27:16.631Z,4.10
2023-05-01T21:58:46.006Z,2.83
2023-05-01T22:53:56.220Z,3.78
2023-05-01T22:58:16.361Z,3.47
2023-05-01T23:18:53.256Z,5.20
2023-05-01T23:22:24.892Z,3.57
2023-05-01T23:25:51.084Z,3.30
2023-05-01T23:29:03.162Z,4.47
2023-05-01T23:32:23.830Z,3.60
2023-05-01T23:35:46.669Z,3.25
2023-05-01T23:38:52.919Z,2.93
2023-05-01T23:41:58.440Z,3.00
2023-05-01T23:45:10.544Z,3.40
2023-05-01T23:48:15.447Z,3.53
2023-05-01T23:51:19.692Z,3.70
2023-05-01T23:54:35.456Z,3.37
2023-05-01T23:57:50.297Z,4.30
